SKCG/CTG METAR and TAF weather

Enter ICAO airport designator
Station Type Date Time Source
SKCG METAR 2022/01/19 20:00 UTC NOAA

SKCG 192000Z 35020KT 9999 FEW020 31/23 Q1008 RMK A2977


Station Type Date Time Source
SKCG Decoded METAR 2022/01/19 20:00 UTC NOAA

Cartagena / Rafael Nunez, Colombia (SKCG) 10-27N 075-31W 12M
Jan 19, 2022 - 03:00 PM EST / 2022.01.19 2000 UTC
Wind: from the N (350 degrees) at 23 MPH (20 KT):0
Visibility: greater than 7 mile(s):0
Sky conditions: mostly clear
Temperature: 87 F (31 C)
Heat index: 93.9 F (34.4 C):1
Dew Point: 73 F (23 C)
Relative Humidity: 62%
Pressure (altimeter): 29.77 in. Hg (1008 hPa)
ob: SKCG 192000Z 35020KT 9999 FEW020 31/23 Q1008 RMK A2977
cycle: 20

Station Type Date Time Source
SKCG TAF 2022/01/19 18:47 UTC NOAA

TAF SKCG 191630Z 1918/2018 35012KT 9999 FEW023
BECMG 2003/2005 VRB02KT CAVOK
BECMG 1915/1917 36015KT FEW020 TX32/1918Z TN24/2010Z

Example: see airport list